Terminal Aerodrome Forecast
Issued by NWS Spokane, WA

Home | Current Version | Previous Version | Text Only | Print | Product List | Glossary On
Versions: 1 2 3 4 5 6 7 8 9 10 11 12 13 14 15 16 17 18 19 20 21 22 23 24 25
000
FTUS46 KOTX 040520
TAFEAT
TAF
KEAT 040520Z 0406/0506 31009KT P6SM FEW100 SCT200
     FM041500 29006KT P6SM SCT070 BKN120
     FM050400 30010KT P6SM SCT150=

USA.gov is the U.S. government's official web portal to all federal, state and local government web resources and services.